sensor_id;sensor_type;location;lat;lon;timestamp;temperature;humidity
29939;DHT22;16799;50.844;5.304;2022-07-03T00:02:09;18.00;99.90
29939;DHT22;16799;50.844;5.304;2022-07-03T00:04:34;17.90;99.90
29939;DHT22;16799;50.844;5.304;2022-07-03T00:07:00;18.00;99.90
29939;DHT22;16799;50.844;5.304;2022-07-03T00:09:26;17.90;99.90
29939;DHT22;16799;50.844;5.304;2022-07-03T00:11:51;17.90;99.90
29939;DHT22;16799;50.844;5.304;2022-07-03T00:14:17;17.90;99.90
29939;DHT22;16799;50.844;5.304;2022-07-03T00:16:43;17.80;99.90
29939;DHT22;16799;50.844;5.304;2022-07-03T00:19:09;17.80;99.90
29939;DHT22;16799;50.844;5.304;2022-07-03T00:21:41;17.70;99.90
29939;DHT22;16799;50.844;5.304;2022-07-03T00:24:23;17.70;99.90
29939;DHT22;16799;50.844;5.304;2022-07-03T00:26:51;17.70;99.90
29939;DHT22;16799;50.844;5.304;2022-07-03T00:29:19;17.70;99.90
29939;DHT22;16799;50.844;5.304;2022-07-03T00:31:47;17.70;99.90
29939;DHT22;16799;50.844;5.304;2022-07-03T00:34:15;17.60;99.90
29939;DHT22;16799;50.844;5.304;2022-07-03T00:36:42;17.70;99.90
29939;DHT22;16799;50.844;5.304;2022-07-03T00:39:10;17.70;99.90
29939;DHT22;16799;50.844;5.304;2022-07-03T00:41:36;17.70;99.90
29939;DHT22;16799;50.844;5.304;2022-07-03T00:44:03;17.70;99.90
29939;DHT22;16799;50.844;5.304;2022-07-03T00:46:29;17.80;99.90
29939;DHT22;16799;50.844;5.304;2022-07-03T00:48:56;17.80;99.90
29939;DHT22;16799;50.844;5.304;2022-07-03T00:51:25;17.80;99.90
29939;DHT22;16799;50.844;5.304;2022-07-03T00:53:52;17.80;99.90
29939;DHT22;16799;50.844;5.304;2022-07-03T00:56:28;17.70;99.90
29939;DHT22;16799;50.844;5.304;2022-07-03T00:58:56;17.10;99.90
29939;DHT22;16799;50.844;5.304;2022-07-03T01:01:29;16.80;99.90
29939;DHT22;16799;50.844;5.304;2022-07-03T01:06:40;16.70;99.90
29939;DHT22;16799;50.844;5.304;2022-07-03T01:09:09;16.50;99.90
29939;DHT22;16799;50.844;5.304;2022-07-03T01:11:39;16.40;99.90
29939;DHT22;16799;50.844;5.304;2022-07-03T01:14:28;16.40;99.90
29939;DHT22;16799;50.844;5.304;2022-07-03T01:17:10;16.50;99.90
29939;DHT22;16799;50.844;5.304;2022-07-03T01:19:42;16.70;99.90
29939;DHT22;16799;50.844;5.304;2022-07-03T01:22:37;16.80;99.90
29939;DHT22;16799;50.844;5.304;2022-07-03T01:25:17;16.70;99.90
29939;DHT22;16799;50.844;5.304;2022-07-03T01:30:29;16.60;99.90
29939;DHT22;16799;50.844;5.304;2022-07-03T01:35:54;16.50;99.90
29939;DHT22;16799;50.844;5.304;2022-07-03T01:38:21;16.60;99.90
29939;DHT22;16799;50.844;5.304;2022-07-03T01:40:49;16.60;99.90
29939;DHT22;16799;50.844;5.304;2022-07-03T01:43:15;16.60;99.90
29939;DHT22;16799;50.844;5.304;2022-07-03T01:45:43;16.40;99.90
29939;DHT22;16799;50.844;5.304;2022-07-03T01:48:11;16.60;99.90
29939;DHT22;16799;50.844;5.304;2022-07-03T01:50:38;16.80;99.90
29939;DHT22;16799;50.844;5.304;2022-07-03T01:53:07;16.70;99.90
29939;DHT22;16799;50.844;5.304;2022-07-03T01:55:34;16.40;99.90
29939;DHT22;16799;50.844;5.304;2022-07-03T01:58:01;16.40;99.90
29939;DHT22;16799;50.844;5.304;2022-07-03T02:00:27;16.30;99.90
29939;DHT22;16799;50.844;5.304;2022-07-03T02:03:02;16.40;99.90
29939;DHT22;16799;50.844;5.304;2022-07-03T02:08:08;16.50;99.90
29939;DHT22;16799;50.844;5.304;2022-07-03T02:10:41;16.40;99.90
29939;DHT22;16799;50.844;5.304;2022-07-03T02:13:17;16.20;99.90
29939;DHT22;16799;50.844;5.304;2022-07-03T02:15:45;16.00;99.90
29939;DHT22;16799;50.844;5.304;2022-07-03T02:18:28;15.90;99.90
29939;DHT22;16799;50.844;5.304;2022-07-03T02:21:16;15.90;99.90
29939;DHT22;16799;50.844;5.304;2022-07-03T02:26:38;16.00;99.90
29939;DHT22;16799;50.844;5.304;2022-07-03T02:29:05;16.00;99.90
29939;DHT22;16799;50.844;5.304;2022-07-03T02:31:41;15.80;99.90
29939;DHT22;16799;50.844;5.304;2022-07-03T02:34:07;15.70;99.90
29939;DHT22;16799;50.844;5.304;2022-07-03T02:36:35;15.50;99.90
29939;DHT22;16799;50.844;5.304;2022-07-03T02:39:04;15.60;99.90
29939;DHT22;16799;50.844;5.304;2022-07-03T02:41:45;15.80;99.90
29939;DHT22;16799;50.844;5.304;2022-07-03T02:44:21;16.10;99.90
29939;DHT22;16799;50.844;5.304;2022-07-03T02:47:24;16.20;99.90
29939;DHT22;16799;50.844;5.304;2022-07-03T02:50:06;16.20;99.90
29939;DHT22;16799;50.844;5.304;2022-07-03T02:55:30;15.60;99.90
29939;DHT22;16799;50.844;5.304;2022-07-03T02:58:12;15.50;99.90
29939;DHT22;16799;50.844;5.304;2022-07-03T03:00:57;15.40;99.90
29939;DHT22;16799;50.844;5.304;2022-07-03T03:03:27;15.40;99.90
29939;DHT22;16799;50.844;5.304;2022-07-03T03:05:55;15.60;99.90
29939;DHT22;16799;50.844;5.304;2022-07-03T03:11:38;15.90;99.90
29939;DHT22;16799;50.844;5.304;2022-07-03T03:13:57;15.80;99.90
29939;DHT22;16799;50.844;5.304;2022-07-03T03:16:25;15.70;99.90
29939;DHT22;16799;50.844;5.304;2022-07-03T03:18:52;15.90;99.90
29939;DHT22;16799;50.844;5.304;2022-07-03T03:21:19;15.90;99.90
29939;DHT22;16799;50.844;5.304;2022-07-03T03:23:49;15.90;99.90
29939;DHT22;16799;50.844;5.304;2022-07-03T03:26:26;16.00;99.90
29939;DHT22;16799;50.844;5.304;2022-07-03T03:28:58;16.10;99.90
29939;DHT22;16799;50.844;5.304;2022-07-03T03:31:24;16.20;99.90
29939;DHT22;16799;50.844;5.304;2022-07-03T03:33:52;16.20;99.90
29939;DHT22;16799;50.844;5.304;2022-07-03T03:36:19;16.20;99.90
29939;DHT22;16799;50.844;5.304;2022-07-03T03:38:46;16.20;99.90
29939;DHT22;16799;50.844;5.304;2022-07-03T03:41:12;16.20;99.90
29939;DHT22;16799;50.844;5.304;2022-07-03T03:43:38;15.90;99.90
29939;DHT22;16799;50.844;5.304;2022-07-03T03:46:05;15.90;99.90
29939;DHT22;16799;50.844;5.304;2022-07-03T03:48:32;15.80;99.90
29939;DHT22;16799;50.844;5.304;2022-07-03T03:50:59;15.60;99.90
29939;DHT22;16799;50.844;5.304;2022-07-03T03:53:26;15.80;99.90
29939;DHT22;16799;50.844;5.304;2022-07-03T03:56:04;15.80;99.90
29939;DHT22;16799;50.844;5.304;2022-07-03T03:58:32;16.00;99.90
29939;DHT22;16799;50.844;5.304;2022-07-03T04:00:59;15.90;99.90
29939;DHT22;16799;50.844;5.304;2022-07-03T04:03:27;15.70;99.90
29939;DHT22;16799;50.844;5.304;2022-07-03T04:05:53;15.90;99.90
29939;DHT22;16799;50.844;5.304;2022-07-03T04:08:20;16.10;99.90
29939;DHT22;16799;50.844;5.304;2022-07-03T04:10:47;16.10;99.90
29939;DHT22;16799;50.844;5.304;2022-07-03T04:13:13;16.00;99.90
29939;DHT22;16799;50.844;5.304;2022-07-03T04:15:39;16.10;99.90
29939;DHT22;16799;50.844;5.304;2022-07-03T04:18:05;15.90;99.90
29939;DHT22;16799;50.844;5.304;2022-07-03T04:20:30;15.60;99.90
29939;DHT22;16799;50.844;5.304;2022-07-03T04:22:57;15.50;99.90
29939;DHT22;16799;50.844;5.304;2022-07-03T04:25:22;15.40;99.90
29939;DHT22;16799;50.844;5.304;2022-07-03T04:27:48;15.40;99.90
29939;DHT22;16799;50.844;5.304;2022-07-03T04:30:14;15.40;99.90
29939;DHT22;16799;50.844;5.304;2022-07-03T04:32:40;15.50;99.90
29939;DHT22;16799;50.844;5.304;2022-07-03T04:35:09;15.70;99.90
29939;DHT22;16799;50.844;5.304;2022-07-03T04:37:35;15.70;99.90
29939;DHT22;16799;50.844;5.304;2022-07-03T04:40:01;15.90;99.90
29939;DHT22;16799;50.844;5.304;2022-07-03T04:42:27;15.90;99.90
29939;DHT22;16799;50.844;5.304;2022-07-03T04:44:53;16.00;99.90
29939;DHT22;16799;50.844;5.304;2022-07-03T04:47:18;15.80;99.90
29939;DHT22;16799;50.844;5.304;2022-07-03T04:49:44;15.80;99.90
29939;DHT22;16799;50.844;5.304;2022-07-03T04:52:10;15.70;99.90
29939;DHT22;16799;50.844;5.304;2022-07-03T04:54:36;15.70;99.90
29939;DHT22;16799;50.844;5.304;2022-07-03T04:57:03;15.80;99.90
29939;DHT22;16799;50.844;5.304;2022-07-03T04:59:29;16.00;99.90
29939;DHT22;16799;50.844;5.304;2022-07-03T05:01:54;16.10;99.90
29939;DHT22;16799;50.844;5.304;2022-07-03T05:04:20;16.20;99.90
29939;DHT22;16799;50.844;5.304;2022-07-03T05:06:46;16.20;99.90
29939;DHT22;16799;50.844;5.304;2022-07-03T05:09:12;16.20;99.90
29939;DHT22;16799;50.844;5.304;2022-07-03T05:11:37;16.40;99.90
29939;DHT22;16799;50.844;5.304;2022-07-03T05:14:03;16.60;99.90
29939;DHT22;16799;50.844;5.304;2022-07-03T05:16:30;16.80;99.90
29939;DHT22;16799;50.844;5.304;2022-07-03T05:18:56;16.90;99.90
29939;DHT22;16799;50.844;5.304;2022-07-03T05:21:21;17.20;99.90
29939;DHT22;16799;50.844;5.304;2022-07-03T05:23:47;17.50;99.90
29939;DHT22;16799;50.844;5.304;2022-07-03T05:26:13;17.60;99.90
29939;DHT22;16799;50.844;5.304;2022-07-03T05:28:39;17.70;99.90
29939;DHT22;16799;50.844;5.304;2022-07-03T05:31:05;17.80;99.90
29939;DHT22;16799;50.844;5.304;2022-07-03T05:33:31;17.70;99.90
29939;DHT22;16799;50.844;5.304;2022-07-03T05:35:57;17.50;99.90
29939;DHT22;16799;50.844;5.304;2022-07-03T05:38:23;17.30;99.90
29939;DHT22;16799;50.844;5.304;2022-07-03T05:41:08;17.10;99.90
29939;DHT22;16799;50.844;5.304;2022-07-03T05:43:33;17.20;99.90
29939;DHT22;16799;50.844;5.304;2022-07-03T05:45:59;17.20;99.90
29939;DHT22;16799;50.844;5.304;2022-07-03T05:48:25;17.30;99.90
29939;DHT22;16799;50.844;5.304;2022-07-03T05:50:51;17.40;99.90
29939;DHT22;16799;50.844;5.304;2022-07-03T05:53:17;17.40;99.90
29939;DHT22;16799;50.844;5.304;2022-07-03T05:55:42;17.40;99.90
29939;DHT22;16799;50.844;5.304;2022-07-03T05:58:08;17.50;99.90
29939;DHT22;16799;50.844;5.304;2022-07-03T06:00:34;17.60;99.90
29939;DHT22;16799;50.844;5.304;2022-07-03T06:03:00;17.70;99.90
29939;DHT22;16799;50.844;5.304;2022-07-03T06:05:27;18.00;99.90
29939;DHT22;16799;50.844;5.304;2022-07-03T06:07:53;18.00;99.90
29939;DHT22;16799;50.844;5.304;2022-07-03T06:10:19;17.90;99.90
29939;DHT22;16799;50.844;5.304;2022-07-03T06:12:45;17.90;99.90
29939;DHT22;16799;50.844;5.304;2022-07-03T06:15:10;17.80;99.90
29939;DHT22;16799;50.844;5.304;2022-07-03T06:17:36;18.10;99.90
29939;DHT22;16799;50.844;5.304;2022-07-03T06:20:03;18.10;99.90
29939;DHT22;16799;50.844;5.304;2022-07-03T06:22:29;18.10;99.90
29939;DHT22;16799;50.844;5.304;2022-07-03T06:24:55;18.10;99.90
29939;DHT22;16799;50.844;5.304;2022-07-03T06:27:20;18.30;99.90
29939;DHT22;16799;50.844;5.304;2022-07-03T06:29:47;18.30;99.90
29939;DHT22;16799;50.844;5.304;2022-07-03T06:32:15;18.20;99.90
29939;DHT22;16799;50.844;5.304;2022-07-03T06:34:41;18.20;99.90
29939;DHT22;16799;50.844;5.304;2022-07-03T06:37:08;18.30;99.90
29939;DHT22;16799;50.844;5.304;2022-07-03T06:39:34;18.30;99.90
29939;DHT22;16799;50.844;5.304;2022-07-03T06:42:00;18.40;99.90
29939;DHT22;16799;50.844;5.304;2022-07-03T06:44:25;18.50;99.90
29939;DHT22;16799;50.844;5.304;2022-07-03T06:46:51;18.40;99.90
29939;DHT22;16799;50.844;5.304;2022-07-03T06:49:17;18.70;99.90
29939;DHT22;16799;50.844;5.304;2022-07-03T06:51:42;18.80;99.90
29939;DHT22;16799;50.844;5.304;2022-07-03T06:54:08;18.80;99.90
29939;DHT22;16799;50.844;5.304;2022-07-03T06:56:34;18.90;99.90
29939;DHT22;16799;50.844;5.304;2022-07-03T06:58:59;19.00;99.90
29939;DHT22;16799;50.844;5.304;2022-07-03T07:01:25;18.80;99.90
29939;DHT22;16799;50.844;5.304;2022-07-03T07:03:51;18.80;99.90
29939;DHT22;16799;50.844;5.304;2022-07-03T07:06:16;19.10;99.90
29939;DHT22;16799;50.844;5.304;2022-07-03T07:08:42;19.30;99.90
29939;DHT22;16799;50.844;5.304;2022-07-03T07:11:08;19.20;99.90
29939;DHT22;16799;50.844;5.304;2022-07-03T07:13:33;19.20;99.90
29939;DHT22;16799;50.844;5.304;2022-07-03T07:15:59;19.20;99.90
29939;DHT22;16799;50.844;5.304;2022-07-03T07:18:26;19.20;99.90
29939;DHT22;16799;50.844;5.304;2022-07-03T07:20:51;19.20;99.90
29939;DHT22;16799;50.844;5.304;2022-07-03T07:23:17;19.10;99.90
29939;DHT22;16799;50.844;5.304;2022-07-03T07:25:43;19.20;99.90
29939;DHT22;16799;50.844;5.304;2022-07-03T07:28:08;19.40;99.90
29939;DHT22;16799;50.844;5.304;2022-07-03T07:30:34;19.30;99.90
29939;DHT22;16799;50.844;5.304;2022-07-03T07:33:00;19.20;99.90
29939;DHT22;16799;50.844;5.304;2022-07-03T07:35:25;19.60;99.90
29939;DHT22;16799;50.844;5.304;2022-07-03T07:37:51;20.00;99.90
29939;DHT22;16799;50.844;5.304;2022-07-03T07:40:16;19.80;99.40
29939;DHT22;16799;50.844;5.304;2022-07-03T07:42:42;19.80;99.90
29939;DHT22;16799;50.844;5.304;2022-07-03T07:45:11;19.80;99.90
29939;DHT22;16799;50.844;5.304;2022-07-03T07:47:37;19.80;99.90
29939;DHT22;16799;50.844;5.304;2022-07-03T07:50:04;19.80;99.60
29939;DHT22;16799;50.844;5.304;2022-07-03T07:52:30;19.80;99.90
29939;DHT22;16799;50.844;5.304;2022-07-03T07:54:55;20.10;99.20
29939;DHT22;16799;50.844;5.304;2022-07-03T07:57:21;20.20;99.80
29939;DHT22;16799;50.844;5.304;2022-07-03T07:59:46;20.20;99.70
29939;DHT22;16799;50.844;5.304;2022-07-03T08:02:12;20.10;99.20
29939;DHT22;16799;50.844;5.304;2022-07-03T08:04:56;20.20;99.90
29939;DHT22;16799;50.844;5.304;2022-07-03T08:07:40;20.40;98.80
29939;DHT22;16799;50.844;5.304;2022-07-03T08:10:07;20.60;98.90
29939;DHT22;16799;50.844;5.304;2022-07-03T08:12:33;20.60;98.20
29939;DHT22;16799;50.844;5.304;2022-07-03T08:14:58;20.50;98.00
29939;DHT22;16799;50.844;5.304;2022-07-03T08:17:24;20.40;98.20
29939;DHT22;16799;50.844;5.304;2022-07-03T08:19:50;20.50;98.10
29939;DHT22;16799;50.844;5.304;2022-07-03T08:22:15;20.70;98.60
29939;DHT22;16799;50.844;5.304;2022-07-03T08:24:41;20.80;98.60
29939;DHT22;16799;50.844;5.304;2022-07-03T08:27:06;21.30;97.80
29939;DHT22;16799;50.844;5.304;2022-07-03T08:29:32;21.30;96.10
29939;DHT22;16799;50.844;5.304;2022-07-03T08:31:58;21.30;97.70
29939;DHT22;16799;50.844;5.304;2022-07-03T08:34:24;21.10;96.70
29939;DHT22;16799;50.844;5.304;2022-07-03T08:36:49;21.00;97.10
29939;DHT22;16799;50.844;5.304;2022-07-03T08:39:15;21.00;97.20
29939;DHT22;16799;50.844;5.304;2022-07-03T08:41:41;21.20;98.20
29939;DHT22;16799;50.844;5.304;2022-07-03T08:44:12;21.50;96.20
29939;DHT22;16799;50.844;5.304;2022-07-03T08:46:39;21.30;95.90
29939;DHT22;16799;50.844;5.304;2022-07-03T08:49:06;21.50;95.40
29939;DHT22;16799;50.844;5.304;2022-07-03T08:51:34;21.70;95.90
29939;DHT22;16799;50.844;5.304;2022-07-03T08:54:00;21.80;95.30
29939;DHT22;16799;50.844;5.304;2022-07-03T08:56:29;21.60;95.30
29939;DHT22;16799;50.844;5.304;2022-07-03T08:58:57;21.90;95.80
29939;DHT22;16799;50.844;5.304;2022-07-03T09:01:24;22.10;94.80
29939;DHT22;16799;50.844;5.304;2022-07-03T09:03:51;22.00;94.80
29939;DHT22;16799;50.844;5.304;2022-07-03T09:06:17;21.80;94.20
29939;DHT22;16799;50.844;5.304;2022-07-03T09:08:43;22.00;94.80
29939;DHT22;16799;50.844;5.304;2022-07-03T09:11:10;22.20;93.00
29939;DHT22;16799;50.844;5.304;2022-07-03T09:13:36;22.20;94.40
29939;DHT22;16799;50.844;5.304;2022-07-03T09:16:02;22.30;94.70
29939;DHT22;16799;50.844;5.304;2022-07-03T09:18:39;22.20;95.50
29939;DHT22;16799;50.844;5.304;2022-07-03T09:21:05;22.00;95.00
29939;DHT22;16799;50.844;5.304;2022-07-03T09:23:43;22.00;94.10
29939;DHT22;16799;50.844;5.304;2022-07-03T09:26:14;22.00;94.10
29939;DHT22;16799;50.844;5.304;2022-07-03T09:31:16;22.40;94.60
29939;DHT22;16799;50.844;5.304;2022-07-03T09:36:37;22.50;94.80
29939;DHT22;16799;50.844;5.304;2022-07-03T09:39:31;22.30;93.60
29939;DHT22;16799;50.844;5.304;2022-07-03T09:42:02;22.40;92.60
29939;DHT22;16799;50.844;5.304;2022-07-03T09:44:42;22.70;92.40
29939;DHT22;16799;50.844;5.304;2022-07-03T09:49:59;22.90;92.80
29939;DHT22;16799;50.844;5.304;2022-07-03T09:57:42;23.20;90.40
29939;DHT22;16799;50.844;5.304;2022-07-03T10:02:35;23.40;91.60
29939;DHT22;16799;50.844;5.304;2022-07-03T10:05:13;23.60;91.20
29939;DHT22;16799;50.844;5.304;2022-07-03T10:10:20;23.70;91.50
29939;DHT22;16799;50.844;5.304;2022-07-03T10:12:49;23.60;91.30
29939;DHT22;16799;50.844;5.304;2022-07-03T10:15:15;23.60;91.50
29939;DHT22;16799;50.844;5.304;2022-07-03T10:17:42;23.70;91.70
29939;DHT22;16799;50.844;5.304;2022-07-03T10:20:30;23.90;90.70
29939;DHT22;16799;50.844;5.304;2022-07-03T10:22:56;24.00;91.80
29939;DHT22;16799;50.844;5.304;2022-07-03T10:25:22;24.60;90.40
29939;DHT22;16799;50.844;5.304;2022-07-03T10:27:48;24.40;85.70
29939;DHT22;16799;50.844;5.304;2022-07-03T10:30:21;24.20;88.00
29939;DHT22;16799;50.844;5.304;2022-07-03T10:32:52;24.00;88.10
29939;DHT22;16799;50.844;5.304;2022-07-03T10:35:44;24.30;87.90
29939;DHT22;16799;50.844;5.304;2022-07-03T10:43:45;25.10;82.30
29939;DHT22;16799;50.844;5.304;2022-07-03T10:46:31;24.90;82.40
29939;DHT22;16799;50.844;5.304;2022-07-03T10:49:04;25.00;86.30
29939;DHT22;16799;50.844;5.304;2022-07-03T10:54:30;25.90;81.80
29939;DHT22;16799;50.844;5.304;2022-07-03T11:02:17;24.30;83.80
29939;DHT22;16799;50.844;5.304;2022-07-03T11:07:29;25.30;80.70
29939;DHT22;16799;50.844;5.304;2022-07-03T11:20:56;25.90;82.90
29939;DHT22;16799;50.844;5.304;2022-07-03T11:23:23;26.70;76.90
29939;DHT22;16799;50.844;5.304;2022-07-03T11:26:01;26.60;77.70
29939;DHT22;16799;50.844;5.304;2022-07-03T11:38:45;25.30;81.50
29939;DHT22;16799;50.844;5.304;2022-07-03T11:41:14;26.40;78.40
29939;DHT22;16799;50.844;5.304;2022-07-03T11:46:17;26.20;78.90
29939;DHT22;16799;50.844;5.304;2022-07-03T11:48:43;27.10;75.10
29939;DHT22;16799;50.844;5.304;2022-07-03T11:51:09;27.70;73.20
29939;DHT22;16799;50.844;5.304;2022-07-03T11:53:36;26.70;74.30
29939;DHT22;16799;50.844;5.304;2022-07-03T11:56:12;25.20;79.40
29939;DHT22;16799;50.844;5.304;2022-07-03T11:58:46;25.30;82.40
29939;DHT22;16799;50.844;5.304;2022-07-03T12:01:39;25.60;81.10
29939;DHT22;16799;50.844;5.304;2022-07-03T12:04:14;25.80;80.20
29939;DHT22;16799;50.844;5.304;2022-07-03T12:09:34;26.60;76.80
29939;DHT22;16799;50.844;5.304;2022-07-03T12:14:46;27.30;75.30
29939;DHT22;16799;50.844;5.304;2022-07-03T12:17:20;27.80;73.70
29939;DHT22;16799;50.844;5.304;2022-07-03T12:19:54;28.10;74.70
29939;DHT22;16799;50.844;5.304;2022-07-03T12:22:36;27.00;76.00
29939;DHT22;16799;50.844;5.304;2022-07-03T12:25:07;25.90;76.50
29939;DHT22;16799;50.844;5.304;2022-07-03T12:27:35;26.50;76.30
29939;DHT22;16799;50.844;5.304;2022-07-03T12:30:03;27.40;73.50
29939;DHT22;16799;50.844;5.304;2022-07-03T12:32:29;27.60;73.20
29939;DHT22;16799;50.844;5.304;2022-07-03T12:34:55;27.50;73.30
29939;DHT22;16799;50.844;5.304;2022-07-03T12:37:34;28.40;71.20
29939;DHT22;16799;50.844;5.304;2022-07-03T12:40:00;29.20;67.90
29939;DHT22;16799;50.844;5.304;2022-07-03T12:42:26;28.20;71.20
29939;DHT22;16799;50.844;5.304;2022-07-03T12:45:02;27.30;73.20
29939;DHT22;16799;50.844;5.304;2022-07-03T12:47:30;27.00;73.50
29939;DHT22;16799;50.844;5.304;2022-07-03T12:50:00;26.40;74.10
29939;DHT22;16799;50.844;5.304;2022-07-03T12:52:30;26.90;74.20
29939;DHT22;16799;50.844;5.304;2022-07-03T12:54:56;27.40;75.30
29939;DHT22;16799;50.844;5.304;2022-07-03T12:57:23;27.90;73.20
29939;DHT22;16799;50.844;5.304;2022-07-03T13:00:16;27.70;72.30
29939;DHT22;16799;50.844;5.304;2022-07-03T13:02:45;27.70;72.90
29939;DHT22;16799;50.844;5.304;2022-07-03T13:05:21;28.00;71.10
29939;DHT22;16799;50.844;5.304;2022-07-03T13:07:52;28.30;70.30
29939;DHT22;16799;50.844;5.304;2022-07-03T13:10:20;27.70;71.10
29939;DHT22;16799;50.844;5.304;2022-07-03T13:12:51;26.80;72.80
29939;DHT22;16799;50.844;5.304;2022-07-03T13:15:17;27.50;72.10
29939;DHT22;16799;50.844;5.304;2022-07-03T13:20:30;26.10;74.80
29939;DHT22;16799;50.844;5.304;2022-07-03T13:23:02;25.50;76.10
29939;DHT22;16799;50.844;5.304;2022-07-03T13:25:28;26.80;72.70
29939;DHT22;16799;50.844;5.304;2022-07-03T13:28:11;26.90;71.00
29939;DHT22;16799;50.844;5.304;2022-07-03T13:30:38;27.50;70.90
29939;DHT22;16799;50.844;5.304;2022-07-03T13:33:04;27.90;70.00
29939;DHT22;16799;50.844;5.304;2022-07-03T13:35:30;27.50;70.90
29939;DHT22;16799;50.844;5.304;2022-07-03T13:37:56;27.60;72.50
29939;DHT22;16799;50.844;5.304;2022-07-03T13:40:22;28.20;68.90
29939;DHT22;16799;50.844;5.304;2022-07-03T13:42:48;28.00;67.90
29939;DHT22;16799;50.844;5.304;2022-07-03T13:45:14;27.70;69.40
29939;DHT22;16799;50.844;5.304;2022-07-03T13:47:39;27.60;68.40
29939;DHT22;16799;50.844;5.304;2022-07-03T13:50:05;26.20;68.70
29939;DHT22;16799;50.844;5.304;2022-07-03T13:52:31;26.00;70.70
29939;DHT22;16799;50.844;5.304;2022-07-03T13:54:57;26.40;69.80
29939;DHT22;16799;50.844;5.304;2022-07-03T13:57:22;26.60;71.00
29939;DHT22;16799;50.844;5.304;2022-07-03T13:59:48;27.10;69.90
29939;DHT22;16799;50.844;5.304;2022-07-03T14:02:14;27.30;67.60
29939;DHT22;16799;50.844;5.304;2022-07-03T14:04:40;27.00;69.50
29939;DHT22;16799;50.844;5.304;2022-07-03T14:07:06;27.50;68.20
29939;DHT22;16799;50.844;5.304;2022-07-03T14:09:32;27.50;67.70
29939;DHT22;16799;50.844;5.304;2022-07-03T14:11:57;27.80;67.10
29939;DHT22;16799;50.844;5.304;2022-07-03T14:14:23;28.30;64.20
29939;DHT22;16799;50.844;5.304;2022-07-03T14:16:48;28.50;63.90
29939;DHT22;16799;50.844;5.304;2022-07-03T14:19:14;28.30;64.30
29939;DHT22;16799;50.844;5.304;2022-07-03T14:21:40;28.30;63.80
29939;DHT22;16799;50.844;5.304;2022-07-03T14:24:05;28.10;63.70
29939;DHT22;16799;50.844;5.304;2022-07-03T14:26:31;27.80;64.20
29939;DHT22;16799;50.844;5.304;2022-07-03T14:29:15;28.00;64.60
29939;DHT22;16799;50.844;5.304;2022-07-03T14:31:59;28.20;63.30
29939;DHT22;16799;50.844;5.304;2022-07-03T14:34:43;27.50;63.90
29939;DHT22;16799;50.844;5.304;2022-07-03T14:37:09;28.00;62.40
29939;DHT22;16799;50.844;5.304;2022-07-03T14:39:35;28.10;64.20
29939;DHT22;16799;50.844;5.304;2022-07-03T14:42:01;27.80;61.60
29939;DHT22;16799;50.844;5.304;2022-07-03T14:44:28;28.20;62.10
29939;DHT22;16799;50.844;5.304;2022-07-03T14:46:54;28.40;59.20
29939;DHT22;16799;50.844;5.304;2022-07-03T14:49:20;28.50;61.10
29939;DHT22;16799;50.844;5.304;2022-07-03T14:51:46;28.80;61.10
29939;DHT22;16799;50.844;5.304;2022-07-03T14:54:17;29.30;60.00
29939;DHT22;16799;50.844;5.304;2022-07-03T14:56:47;29.40;59.40
29939;DHT22;16799;50.844;5.304;2022-07-03T14:59:19;29.40;59.30
29939;DHT22;16799;50.844;5.304;2022-07-03T15:01:49;29.30;59.80
29939;DHT22;16799;50.844;5.304;2022-07-03T15:04:35;29.20;58.00
29939;DHT22;16799;50.844;5.304;2022-07-03T15:07:04;29.00;58.30
29939;DHT22;16799;50.844;5.304;2022-07-03T15:09:33;29.10;57.80
29939;DHT22;16799;50.844;5.304;2022-07-03T15:12:04;29.20;58.30
29939;DHT22;16799;50.844;5.304;2022-07-03T15:14:49;29.50;58.70
29939;DHT22;16799;50.844;5.304;2022-07-03T15:17:17;29.20;58.20
29939;DHT22;16799;50.844;5.304;2022-07-03T15:19:45;28.60;59.20
29939;DHT22;16799;50.844;5.304;2022-07-03T15:22:13;28.20;59.30
29939;DHT22;16799;50.844;5.304;2022-07-03T15:24:40;28.60;60.10
29939;DHT22;16799;50.844;5.304;2022-07-03T15:27:07;29.10;59.70
29939;DHT22;16799;50.844;5.304;2022-07-03T15:29:36;28.70;59.70
29939;DHT22;16799;50.844;5.304;2022-07-03T15:32:04;29.20;59.30
29939;DHT22;16799;50.844;5.304;2022-07-03T15:34:30;29.30;57.90
29939;DHT22;16799;50.844;5.304;2022-07-03T15:54:27;27.70;60.00
29939;DHT22;16799;50.844;5.304;2022-07-03T15:56:58;28.40;59.70
29939;DHT22;16799;50.844;5.304;2022-07-03T15:59:27;27.50;61.30
29939;DHT22;16799;50.844;5.304;2022-07-03T16:01:58;26.90;63.10
29939;DHT22;16799;50.844;5.304;2022-07-03T16:07:18;26.80;62.80
29939;DHT22;16799;50.844;5.304;2022-07-03T16:09:44;27.80;60.90
29939;DHT22;16799;50.844;5.304;2022-07-03T16:12:10;28.40;61.60
29939;DHT22;16799;50.844;5.304;2022-07-03T16:14:49;28.40;60.00
29939;DHT22;16799;50.844;5.304;2022-07-03T16:17:21;27.90;61.20
29939;DHT22;16799;50.844;5.304;2022-07-03T16:19:48;27.60;60.40
29939;DHT22;16799;50.844;5.304;2022-07-03T16:22:15;27.70;60.50
29939;DHT22;16799;50.844;5.304;2022-07-03T16:24:42;27.40;61.50
29939;DHT22;16799;50.844;5.304;2022-07-03T16:27:12;27.60;62.70
29939;DHT22;16799;50.844;5.304;2022-07-03T16:29:38;28.60;62.90
29939;DHT22;16799;50.844;5.304;2022-07-03T16:32:06;29.50;58.70
29939;DHT22;16799;50.844;5.304;2022-07-03T16:37:15;29.70;58.70
29939;DHT22;16799;50.844;5.304;2022-07-03T16:39:46;29.20;57.60
29939;DHT22;16799;50.844;5.304;2022-07-03T16:42:15;29.10;59.70
29939;DHT22;16799;50.844;5.304;2022-07-03T16:44:41;29.40;59.30
29939;DHT22;16799;50.844;5.304;2022-07-03T16:47:09;29.60;59.00
29939;DHT22;16799;50.844;5.304;2022-07-03T16:49:36;30.00;57.90
29939;DHT22;16799;50.844;5.304;2022-07-03T16:52:04;30.70;57.40
29939;DHT22;16799;50.844;5.304;2022-07-03T16:54:31;29.70;56.60
29939;DHT22;16799;50.844;5.304;2022-07-03T16:56:58;29.50;57.80
29939;DHT22;16799;50.844;5.304;2022-07-03T16:59:25;29.40;57.90
29939;DHT22;16799;50.844;5.304;2022-07-03T17:01:52;29.40;58.00
29939;DHT22;16799;50.844;5.304;2022-07-03T17:04:21;29.00;57.40
29939;DHT22;16799;50.844;5.304;2022-07-03T17:06:47;28.30;58.70
29939;DHT22;16799;50.844;5.304;2022-07-03T17:09:14;28.30;58.90
29939;DHT22;16799;50.844;5.304;2022-07-03T17:11:41;27.80;58.80
29939;DHT22;16799;50.844;5.304;2022-07-03T17:14:07;27.60;59.10
29939;DHT22;16799;50.844;5.304;2022-07-03T17:16:38;27.70;59.30
29939;DHT22;16799;50.844;5.304;2022-07-03T17:19:07;28.00;59.40
29939;DHT22;16799;50.844;5.304;2022-07-03T17:21:44;28.10;58.90
29939;DHT22;16799;50.844;5.304;2022-07-03T17:24:09;28.10;59.60
29939;DHT22;16799;50.844;5.304;2022-07-03T17:26:40;28.70;57.80
29939;DHT22;16799;50.844;5.304;2022-07-03T17:29:17;29.60;58.00
29939;DHT22;16799;50.844;5.304;2022-07-03T17:31:45;30.00;57.20